Flight Track Log - Related Links

Times and Time Zones

All times are in EDT time to prevent confusion due to time zone crossing. See the N55VF flight status page for this flight to view local times or setup timezone preferences in your user account.

Time Position Orientation Groundspeed Altitude Reporting Facility
EDT Latitude Longitude Course Direction KTS MPH feet Rate Location/Type
Thu 03:40:55 PM 39.3667 -84.5333 303° West 98 113 1,200  Level Cincinnati TRACON
Thu 03:41:43 PM 39.3833 -84.5667 303° West 117 135 2,100 1,056 Climbing Cincinnati TRACON
Thu 03:42:43 PM 39.4000 -84.6000 303° West 128 147 3,100 1,041 Climbing Cincinnati TRACON
Thu 03:43:21 PM 39.4167 -84.5872 31° Northeast 183 211 3,800 1,074 Climbing Indianapolis Center
Thu 03:44:18 PM 39.4428 -84.5408 54° Northeast 171 197 4,800 886 Climbing Indianapolis Center
Thu 03:44:49 PM 39.4553 -84.5181 55° Northeast 171 197 5,100 196 Climbing Indianapolis Center
Thu 03:45:50 PM 39.4869 -84.4631 53° Northeast 191 220 5,100 -50 Level Indianapolis Center
Thu 03:46:50 PM 39.5236 -84.3975 54° Northeast 207 238 5,000 -61 Descending Indianapolis Center
Thu 03:47:29 PM 39.5406 -84.3683 53° Northeast 200 230 5,000  Level Indianapolis Center
Thu 03:47:51 PM 39.5556 -84.3397 56° Northeast 204 235 5,000  Level Indianapolis Center
Thu 03:48:31 PM 39.5742 -84.3078 53° Northeast 203 234 5,000  Level Indianapolis Center
Thu 03:48:52 PM 39.5894 -84.2819 52° Northeast 203 234 5,000  Level Indianapolis Center
Thu 03:49:53 PM 39.6217 -84.2211 55° Northeast 201 231 5,000  Level Indianapolis Center
Thu 03:50:35 PM 39.6456 -84.1808 52° Northeast 200 230 5,000  Level Indianapolis Center
Thu 03:50:54 PM 39.6533 -84.1631 60° Northeast 199 229 5,000  Level Indianapolis Center
Thu 03:51:54 PM 39.6897 -84.1000 53° Northeast 202 232 5,000  Level Indianapolis Center
Thu 03:52:40 PM 39.7114 -84.0617 54° Northeast 201 231 5,000 98 Level Indianapolis Center
Thu 03:52:55 PM 39.7217 -84.0417 56° Northeast 203 234 5,100  Climbing Indianapolis Center
Thu 03:53:42 PM 39.7456 -84.0028 51° Northeast 202 232 5,000 -55 Descending Indianapolis Center
Thu 03:54:44 PM 39.7786 -83.9425 54° Northeast 202 232 5,000  Level Indianapolis Center
Thu 03:55:46 PM 39.8119 -83.8814 55° Northeast 203 234 5,000  Level Indianapolis Center
Thu 03:56:48 PM 39.8506 -83.8117 54° Northeast 202 232 5,000  Level Indianapolis Center
Thu 03:57:50 PM 39.8839 -83.7519 54° Northeast 202 232 5,000  Level Indianapolis Center
Thu 03:58:52 PM 39.9175 -83.6911 54° Northeast 202 232 5,000  Level Indianapolis Center
Thu 03:59:54 PM 39.9514 -83.6300 54° Northeast 204 235 5,000 -48 Level Indianapolis Center
Thu 04:00:56 PM 39.9847 -83.5683 55° Northeast 204 235 4,900 -48 Descending Indianapolis Center
Thu 04:01:58 PM 40.0192 -83.5067 54° Northeast 205 236 4,900 48 Level Indianapolis Center
Thu 04:03:00 PM 40.0519 -83.4447 55° Northeast 205 236 5,000 48 Climbing Indianapolis Center
Thu 04:04:02 PM 40.0867 -83.3825 54° Northeast 207 238 5,000  Level Indianapolis Center
Thu 04:05:06 PM 40.1233 -83.3139 55° Northeast 203 234 5,000  Level Indianapolis Center
Thu 04:06:06 PM 40.1531 -83.2589 55° Northeast 206 237 5,000  Level Indianapolis Center
Thu 04:07:02 PM 40.1881 -83.1961 54° Northeast 206 237 5,000  Level Indianapolis Center
Thu 04:08:02 PM 40.2175 -83.1342 58° Northeast 203 234 5,000  Level Indianapolis Center
Thu 04:09:12 PM 40.2586 -83.0636 53° Northeast 206 237 5,000  Level Indianapolis Center
Thu 04:10:04 PM 40.2889 -83.0086 54° Northeast 199 229 5,000  Level Indianapolis Center
Thu 04:11:17 PM 40.3258 -82.9397 55° Northeast 206 237 5,000  Level Indianapolis Center
Thu 04:12:19 PM 40.3600 -82.8758 55° Northeast 211 243 5,000  Level Indianapolis Center
Thu 04:13:21 PM 40.3975 -82.8053 55° Northeast 211 243 5,000  Level Indianapolis Center
Thu 04:14:23 PM 40.4322 -82.7411 55° Northeast 213 245 5,000  Level Indianapolis Center
Thu 04:15:25 PM 40.4667 -82.6772 55° Northeast 213 245 5,000  Level Indianapolis Center
Thu 04:16:27 PM 40.5000 -82.6156 55° Northeast 208 239 5,000  Level Indianapolis Center
Thu 04:17:29 PM 40.5339 -82.5519 55° Northeast 209 241 5,000  Level Indianapolis Center
Thu 04:18:31 PM 40.5667 -82.4881 56° Northeast 209 241 5,000  Level Indianapolis Center
Thu 04:19:33 PM 40.6050 -82.4161 55° Northeast 206 237 5,000  Level Indianapolis Center
Thu 04:20:35 PM 40.6381 -82.3533 55° Northeast 206 237 5,000 -80 Level Indianapolis Center
Thu 04:27:04 PM 40.8510 -81.9500 55° Northeast 220 253 4,400 -100 Descending FlightAware ADS-B
Thu 04:27:34 PM 40.8690 -81.9150 56° Northeast 215 247 4,300 -133 Descending FlightAware ADS-B
Thu 04:27:49 PM 40.8780 -81.8980 55° Northeast 210 242 4,300 -150 Level FlightAware ADS-B
Thu 04:28:14 PM 40.8920 -81.8710 56° Northeast 208 239 4,200 -240 Descending FlightAware ADS-B
Thu 04:28:39 PM 40.9040 -81.8480 55° Northeast 209 241 4,100 -450 Descending FlightAware ADS-B
Thu 04:28:54 PM 40.9120 -81.8330 55° Northeast 214 246 3,900 -800 Descending FlightAware ADS-B
Thu 04:29:24 PM 40.9300 -81.7970 56° Northeast 218 251 3,500 -500 Descending FlightAware ADS-B
Thu 04:29:54 PM 40.9470 -81.7640 56° Northeast 215 247 3,400 -300 Descending FlightAware ADS-B
Thu 04:30:24 PM 40.9650 -81.7310 54° Northeast 217 250 3,200 -436 Descending FlightAware ADS-B
Thu 04:30:49 PM 40.9780 -81.7040 57° Northeast 213 245 3,000 -300 Descending FlightAware ADS-B
Thu 04:31:04 PM 40.9860 -81.6880 56° Northeast 210 242 3,000 -150 Level FlightAware ADS-B
Thu 04:31:29 PM 41.0000 -81.6610 56° Northeast 208 239 2,900 -218 Descending FlightAware ADS-B
Thu 04:31:59 PM 41.0160 -81.6300 56° Northeast 204 235 2,800 -133 Descending FlightAware ADS-B
Thu 04:32:14 PM 41.0230 -81.6140 60° Northeast 200 230 2,800  Level FlightAware ADS-B
Thu 04:32:24 PM 41.0260 -81.6000 74° East 195 224 2,800  Level FlightAware ADS-B
Thu 04:32:54 PM 41.0300 -81.5680 81° East 197 227 2,800  Level FlightAware ADS-B

Login

Don't have an account? Register now (free) for customized features, flight alerts, and more!